Time;durP1;ratioP1;P1;durP2;ratioP2;P2;SDS_P1;SDS_P2;PMS_P1;PMS_P2;Temp;Humidity;BMP_temperature;BMP_pressure;BME280_temperature;BME280_humidity;BME280_pressure;Samples;Min_cycle;Max_cycle;Signal;HPM_P1;HPM_P2
2022/01/27 00:00:32;;;;;;;63.70;31.70;;;;;;;;;;5075564;28;20215;-73
2022/01/27 00:03:14;;;;;;;61.53;31.30;;;;;;;;;;5064034;28;20212;-75
2022/01/27 00:05:51;;;;;;;60.17;31.30;;;;;;;;;;5056073;28;20188;-76
2022/01/27 00:08:25;;;;;;;62.77;33.20;;;;;;;;;;5055462;28;20232;-75
2022/01/27 00:10:58;;;;;;;66.50;32.87;;;;;;;;;;5059020;28;20193;-76
2022/01/27 00:13:30;;;;;;;63.83;32.93;;;;;;;;;;5070076;28;20592;-73
2022/01/27 00:16:12;;;;;;;61.00;30.93;;;;;;;;;;5055703;28;20298;-74
2022/01/27 00:18:40;;;;;;;62.73;31.87;;;;;;;;;;5055729;28;20269;-75
2022/01/27 00:21:09;;;;;;;62.17;33.17;;;;;;;;;;5057479;28;20203;-76
2022/01/27 00:23:40;;;;;;;63.47;32.93;;;;;;;;;;5062904;28;20727;-75
2022/01/27 00:26:09;;;;;;;59.73;31.50;;;;;;;;;;5055155;28;20196;-75
2022/01/27 00:28:37;;;;;;;59.27;32.07;;;;;;;;;;5055145;28;20218;-75
2022/01/27 00:31:06;;;;;;;60.23;31.60;;;;;;;;;;5059390;28;20208;-77
2022/01/27 00:33:34;;;;;;;61.13;32.63;;;;;;;;;;5072022;28;20222;-77
2022/01/27 00:36:03;;;;;;;62.67;33.37;;;;;;;;;;5075202;28;20214;-73
2022/01/27 00:38:32;;;;;;;62.40;33.27;;;;;;;;;;5075295;28;20226;-73
2022/01/27 00:41:02;;;;;;;58.47;32.50;;;;;;;;;;5074907;28;20218;-75
2022/01/27 00:43:30;;;;;;;63.43;33.93;;;;;;;;;;5060443;28;20209;-76
2022/01/27 00:45:59;;;;;;;61.33;31.97;;;;;;;;;;5075347;28;20202;-75
2022/01/27 00:48:28;;;;;;;59.37;32.97;;;;;;;;;;5070704;28;20225;-73
2022/01/27 00:51:00;;;;;;;61.33;33.10;;;;;;;;;;5074850;28;20252;-77
2022/01/27 00:53:38;;;;;;;62.80;33.83;;;;;;;;;;5074796;28;20314;-74
2022/01/27 00:56:17;;;;;;;56.73;32.63;;;;;;;;;;5074804;28;20572;-75
2022/01/27 00:58:54;;;;;;;59.20;31.47;;;;;;;;;;5074773;28;20267;-76
2022/01/27 01:01:27;;;;;;;57.10;32.47;;;;;;;;;;5074586;28;20205;-77
2022/01/27 01:03:59;;;;;;;53.87;30.67;;;;;;;;;;5053367;28;20599;-73
2022/01/27 01:06:37;;;;;;;54.53;29.97;;;;;;;;;;5055555;28;20188;-75
2022/01/27 01:14:55;;;;;;;54.47;31.57;;;;;;;;;;5070774;28;20232;-77
2022/01/27 01:17:36;;;;;;;54.83;31.03;;;;;;;;;;5073411;28;20230;-77
2022/01/27 01:20:23;;;;;;;51.20;31.07;;;;;;;;;;5074441;28;20201;-74
2022/01/27 01:31:27;;;;;;;55.83;33.00;;;;;;;;;;5057665;28;20195;-74
2022/01/27 01:34:12;;;;;;;55.27;31.63;;;;;;;;;;5054134;28;20267;-77
2022/01/27 01:36:48;;;;;;;62.50;33.27;;;;;;;;;;5053907;28;20655;-76
2022/01/27 01:39:17;;;;;;;54.13;32.30;;;;;;;;;;5054036;28;20633;-76
2022/01/27 01:41:45;;;;;;;59.00;33.27;;;;;;;;;;5053666;28;20207;-77
2022/01/27 01:44:15;;;;;;;56.97;32.33;;;;;;;;;;5064968;28;20198;-75
2022/01/27 01:46:44;;;;;;;51.63;30.50;;;;;;;;;;5072306;28;20204;-75
2022/01/27 01:49:12;;;;;;;57.13;33.03;;;;;;;;;;5053682;28;20712;-75
2022/01/27 01:51:43;;;;;;;54.17;32.43;;;;;;;;;;5055451;28;20213;-75
2022/01/27 01:54:12;;;;;;;57.53;33.37;;;;;;;;;;5073148;28;20228;-74
2022/01/27 01:56:41;;;;;;;56.37;32.93;;;;;;;;;;5071514;28;20200;-74
2022/01/27 01:59:09;;;;;;;52.97;33.03;;;;;;;;;;5053600;28;20206;-75
2022/01/27 02:01:40;;;;;;;55.43;31.40;;;;;;;;;;5053692;28;20197;-75
2022/01/27 02:04:11;;;;;;;54.13;32.27;;;;;;;;;;5063994;28;20296;-74
2022/01/27 02:06:45;;;;;;;55.47;31.23;;;;;;;;;;5069658;28;20237;-74
2022/01/27 02:09:25;;;;;;;54.77;32.17;;;;;;;;;;5058048;28;20198;-74
2022/01/27 02:20:15;;;;;;;49.27;29.60;;;;;;;;;;5072996;28;20247;-75
2022/01/27 02:22:43;;;;;;;50.43;30.63;;;;;;;;;;5071960;28;20218;-77
2022/01/27 02:25:13;;;;;;;48.50;29.47;;;;;;;;;;5071613;28;20242;-77
2022/01/27 02:27:41;;;;;;;49.93;30.63;;;;;;;;;;5068192;28;20574;-73
2022/01/27 02:30:10;;;;;;;55.03;31.97;;;;;;;;;;5053060;28;20206;-76
2022/01/27 02:32:38;;;;;;;53.53;31.60;;;;;;;;;;5053338;28;20213;-77
2022/01/27 02:35:07;;;;;;;56.07;31.47;;;;;;;;;;5069768;28;20292;-76
2022/01/27 02:37:37;;;;;;;53.70;31.73;;;;;;;;;;5056777;28;20211;-74
2022/01/27 02:40:06;;;;;;;54.70;31.47;;;;;;;;;;5056324;28;20563;-77
2022/01/27 02:42:35;;;;;;;54.73;31.23;;;;;;;;;;5065993;28;20202;-76
2022/01/27 02:45:06;;;;;;;53.57;32.00;;;;;;;;;;5056245;28;20606;-72
2022/01/27 02:47:34;;;;;;;51.43;30.77;;;;;;;;;;5069789;28;20217;-74
2022/01/27 02:50:03;;;;;;;53.07;30.33;;;;;;;;;;5073268;28;20211;-72
2022/01/27 02:52:31;;;;;;;55.70;32.23;;;;;;;;;;5072105;28;20197;-76
2022/01/27 02:55:01;;;;;;;55.73;31.43;;;;;;;;;;5053334;28;20236;-76
2022/01/27 02:57:30;;;;;;;55.33;31.53;;;;;;;;;;5055359;28;20227;-77
2022/01/27 02:59:58;;;;;;;55.50;32.57;;;;;;;;;;5057482;28;20208;-76
2022/01/27 03:02:27;;;;;;;51.63;30.73;;;;;;;;;;5065058;28;20214;-73
2022/01/27 03:04:55;;;;;;;57.80;31.47;;;;;;;;;;5068609;28;20203;-73
2022/01/27 03:07:24;;;;;;;56.80;31.63;;;;;;;;;;5052438;28;20232;-75
2022/01/27 03:09:54;;;;;;;53.93;31.63;;;;;;;;;;5053079;28;20235;-77
2022/01/27 03:12:26;;;;;;;56.63;31.90;;;;;;;;;;5052788;28;20211;-73
2022/01/27 03:14:54;;;;;;;54.17;31.20;;;;;;;;;;5053923;28;20253;-73
2022/01/27 03:17:23;;;;;;;55.07;30.93;;;;;;;;;;5052975;28;20273;-74
2022/01/27 03:19:51;;;;;;;54.10;30.67;;;;;;;;;;5068366;28;20202;-77
2022/01/27 03:22:20;;;;;;;52.97;30.30;;;;;;;;;;5072296;28;20208;-76
2022/01/27 03:24:48;;;;;;;50.63;29.43;;;;;;;;;;5058433;28;20191;-73
2022/01/27 03:27:20;;;;;;;52.17;30.80;;;;;;;;;;5055578;28;20720;-75
2022/01/27 03:29:51;;;;;;;54.07;29.90;;;;;;;;;;5056290;28;20193;-73
2022/01/27 03:32:19;;;;;;;52.50;30.23;;;;;;;;;;5066618;28;20268;-76
2022/01/27 03:34:48;;;;;;;50.23;29.13;;;;;;;;;;5056292;28;20221;-77
2022/01/27 03:37:16;;;;;;;48.63;29.47;;;;;;;;;;5068129;28;20222;-75
2022/01/27 03:39:45;;;;;;;46.07;28.57;;;;;;;;;;5075548;28;20197;-75
2022/01/27 03:42:14;;;;;;;48.53;29.20;;;;;;;;;;5070546;28;20575;-74
2022/01/27 03:44:42;;;;;;;48.30;29.37;;;;;;;;;;5060424;28;20202;-76
2022/01/27 03:47:12;;;;;;;51.13;28.83;;;;;;;;;;5073511;28;20278;-76
2022/01/27 03:49:40;;;;;;;48.53;28.73;;;;;;;;;;5075154;28;20201;-75
2022/01/27 03:52:09;;;;;;;46.10;28.10;;;;;;;;;;5065955;28;20207;-75
2022/01/27 03:54:37;;;;;;;46.93;28.87;;;;;;;;;;5066104;28;20266;-72
2022/01/27 03:57:06;;;;;;;48.10;28.80;;;;;;;;;;5075882;28;20710;-74
2022/01/27 03:59:34;;;;;;;46.33;28.60;;;;;;;;;;5075608;28;20209;-76
2022/01/27 04:02:04;;;;;;;46.73;27.10;;;;;;;;;;5069664;28;20202;-74
2022/01/27 04:04:35;;;;;;;46.77;28.33;;;;;;;;;;5056067;28;20298;-73
2022/01/27 04:07:04;;;;;;;45.33;27.67;;;;;;;;;;5073282;28;20236;-73
2022/01/27 04:09:33;;;;;;;43.53;27.13;;;;;;;;;;5061129;28;20206;-73
2022/01/27 04:12:01;;;;;;;47.23;28.13;;;;;;;;;;5059549;28;20210;-76
2022/01/27 04:14:29;;;;;;;48.07;28.40;;;;;;;;;;5060288;28;20210;-75
2022/01/27 04:16:58;;;;;;;44.93;28.30;;;;;;;;;;5062693;28;20201;-75
2022/01/27 04:19:27;;;;;;;45.40;27.07;;;;;;;;;;5075276;28;20595;-74
2022/01/27 04:21:56;;;;;;;46.13;28.03;;;;;;;;;;5071578;28;20200;-77
2022/01/27 04:24:25;;;;;;;45.83;29.10;;;;;;;;;;5061350;28;20214;-76
2022/01/27 04:27:01;;;;;;;46.83;27.60;;;;;;;;;;5066382;28;20253;-77
2022/01/27 04:29:33;;;;;;;48.17;28.20;;;;;;;;;;5073811;28;20213;-76
2022/01/27 04:32:06;;;;;;;45.10;26.83;;;;;;;;;;5070130;28;20609;-73
2022/01/27 04:34:36;;;;;;;45.17;27.13;;;;;;;;;;5055344;28;20219;-75
2022/01/27 04:37:08;;;;;;;44.40;27.70;;;;;;;;;;5061451;28;20226;-74
2022/01/27 04:39:42;;;;;;;45.83;27.83;;;;;;;;;;5075379;28;20205;-74
2022/01/27 04:42:16;;;;;;;46.27;27.63;;;;;;;;;;5058643;28;20192;-74
2022/01/27 04:44:57;;;;;;;45.97;27.57;;;;;;;;;;5055103;28;20772;-74
2022/01/27 04:47:31;;;;;;;44.87;27.37;;;;;;;;;;5064397;28;20221;-75
2022/01/27 04:50:00;;;;;;;39.50;26.30;;;;;;;;;;5063352;28;20201;-76
2022/01/27 04:52:32;;;;;;;43.83;27.60;;;;;;;;;;5070885;28;20233;-75
2022/01/27 04:55:05;;;;;;;42.77;26.47;;;;;;;;;;5073337;28;20276;-73
2022/01/27 04:57:35;;;;;;;43.27;27.37;;;;;;;;;;5055250;28;20291;-75
2022/01/27 05:00:04;;;;;;;41.90;26.67;;;;;;;;;;5054641;28;20214;-75
2022/01/27 05:02:39;;;;;;;40.30;26.40;;;;;;;;;;5066065;28;20630;-74
2022/01/27 05:05:08;;;;;;;44.17;25.90;;;;;;;;;;5054257;28;20277;-72
2022/01/27 05:07:57;;;;;;;45.30;26.77;;;;;;;;;;5054424;28;20251;-75
2022/01/27 05:10:30;;;;;;;40.90;26.87;;;;;;;;;;5054734;28;20200;-75
2022/01/27 05:13:05;;;;;;;42.40;26.07;;;;;;;;;;5073142;28;20211;-74
2022/01/27 05:15:41;;;;;;;46.87;27.53;;;;;;;;;;5063352;28;20221;-73
2022/01/27 05:18:09;;;;;;;42.07;24.80;;;;;;;;;;5073688;28;20220;-74
2022/01/27 05:20:37;;;;;;;43.67;28.10;;;;;;;;;;5064483;28;20208;-76
2022/01/27 05:23:07;;;;;;;43.87;28.97;;;;;;;;;;5053978;28;20224;-74
2022/01/27 05:25:36;;;;;;;41.93;26.00;;;;;;;;;;5073771;28;20258;-75
2022/01/27 05:28:06;;;;;;;41.77;27.77;;;;;;;;;;5060222;28;20591;-75
2022/01/27 05:30:35;;;;;;;49.10;28.47;;;;;;;;;;5054628;28;20611;-77
2022/01/27 05:33:03;;;;;;;42.67;28.20;;;;;;;;;;5055656;28;20218;-75
2022/01/27 05:35:32;;;;;;;43.27;28.00;;;;;;;;;;5053876;28;20253;-76
2022/01/27 05:38:01;;;;;;;46.33;27.83;;;;;;;;;;5067145;28;20223;-77
2022/01/27 05:40:31;;;;;;;45.33;29.57;;;;;;;;;;5066194;28;20555;-72
2022/01/27 05:43:00;;;;;;;43.17;27.33;;;;;;;;;;5054984;28;20198;-75
2022/01/27 05:45:28;;;;;;;43.27;27.00;;;;;;;;;;5072930;28;20194;-77
2022/01/27 05:47:57;;;;;;;42.60;27.13;;;;;;;;;;5058243;28;20226;-77
2022/01/27 05:50:26;;;;;;;43.37;27.83;;;;;;;;;;5053417;28;20271;-73
2022/01/27 05:52:55;;;;;;;44.80;28.13;;;;;;;;;;5063687;28;20636;-74
2022/01/27 05:55:23;;;;;;;45.00;28.90;;;;;;;;;;5057223;28;20266;-76
2022/01/27 05:57:53;;;;;;;51.53;29.33;;;;;;;;;;5059847;28;20226;-76
2022/01/27 06:00:21;;;;;;;42.00;27.40;;;;;;;;;;5064184;28;20202;-73
2022/01/27 06:02:50;;;;;;;44.37;28.70;;;;;;;;;;5066231;28;20208;-76
2022/01/27 06:05:19;;;;;;;43.57;27.97;;;;;;;;;;5066943;28;20205;-76
2022/01/27 06:07:47;;;;;;;43.60;27.83;;;;;;;;;;5053175;28;20219;-75
2022/01/27 06:10:16;;;;;;;43.93;28.67;;;;;;;;;;5053272;28;20255;-73
2022/01/27 06:12:52;;;;;;;50.73;28.50;;;;;;;;;;5053067;28;20202;-72
2022/01/27 06:15:22;;;;;;;44.27;27.77;;;;;;;;;;5054371;28;20202;-77
2022/01/27 06:17:52;;;;;;;44.67;28.77;;;;;;;;;;5054369;28;20225;-75
2022/01/27 06:20:21;;;;;;;44.70;28.93;;;;;;;;;;5069065;28;20258;-74
2022/01/27 06:22:50;;;;;;;47.40;28.93;;;;;;;;;;5053714;28;20214;-73
2022/01/27 06:25:19;;;;;;;45.37;28.27;;;;;;;;;;5052968;28;20224;-72
2022/01/27 06:27:47;;;;;;;45.03;28.73;;;;;;;;;;5067585;28;20217;-76
2022/01/27 06:30:16;;;;;;;41.27;27.53;;;;;;;;;;5053267;28;20201;-73
2022/01/27 06:32:46;;;;;;;42.03;27.43;;;;;;;;;;5058651;28;20209;-76
2022/01/27 06:35:14;;;;;;;46.73;28.07;;;;;;;;;;5052654;28;20195;-75
2022/01/27 06:37:45;;;;;;;46.17;27.83;;;;;;;;;;5052660;28;20218;-75
2022/01/27 06:40:15;;;;;;;45.37;28.60;;;;;;;;;;5052483;28;20195;-73
2022/01/27 06:42:44;;;;;;;45.67;28.23;;;;;;;;;;5052245;28;20258;-71
2022/01/27 06:45:13;;;;;;;41.20;27.30;;;;;;;;;;5072572;28;20699;-77
2022/01/27 06:47:41;;;;;;;47.00;29.17;;;;;;;;;;5060305;28;20216;-72
2022/01/27 06:50:11;;;;;;;45.23;27.80;;;;;;;;;;5052787;28;20617;-73
2022/01/27 06:52:41;;;;;;;41.80;26.70;;;;;;;;;;5052925;28;20203;-74
2022/01/27 06:55:10;;;;;;;45.00;27.63;;;;;;;;;;5053044;28;20214;-76
2022/01/27 06:57:38;;;;;;;42.47;28.10;;;;;;;;;;5052715;28;20282;-76
2022/01/27 07:00:08;;;;;;;46.80;29.10;;;;;;;;;;5053413;28;20207;-74
2022/01/27 07:02:36;;;;;;;43.40;28.70;;;;;;;;;;5061145;28;20202;-74
2022/01/27 07:05:05;;;;;;;48.47;28.57;;;;;;;;;;5069163;28;20253;-75
2022/01/27 07:07:35;;;;;;;43.70;28.33;;;;;;;;;;5071696;28;20684;-74
2022/01/27 07:10:04;;;;;;;46.93;28.93;;;;;;;;;;5056639;28;20224;-72
2022/01/27 07:12:33;;;;;;;49.67;29.87;;;;;;;;;;5056560;28;20226;-74
2022/01/27 07:15:01;;;;;;;45.90;28.47;;;;;;;;;;5074475;28;20669;-74
2022/01/27 07:17:30;;;;;;;47.67;29.10;;;;;;;;;;5076454;28;20230;-75
2022/01/27 07:19:58;;;;;;;48.13;29.23;;;;;;;;;;5076739;28;20612;-76
2022/01/27 07:22:27;;;;;;;49.50;29.80;;;;;;;;;;5062638;28;20295;-74
2022/01/27 07:24:56;;;;;;;43.73;27.70;;;;;;;;;;5056295;28;20666;-73
2022/01/27 07:27:25;;;;;;;47.57;27.43;;;;;;;;;;5057818;28;20291;-74
2022/01/27 07:29:53;;;;;;;50.53;29.57;;;;;;;;;;5071743;28;20255;-77
2022/01/27 07:32:21;;;;;;;41.73;27.90;;;;;;;;;;5057203;28;20201;-73
2022/01/27 07:34:50;;;;;;;46.47;28.87;;;;;;;;;;5062368;28;20218;-77
2022/01/27 07:37:19;;;;;;;46.20;29.17;;;;;;;;;;5057092;28;20284;-77
2022/01/27 07:39:47;;;;;;;48.13;28.10;;;;;;;;;;5075837;28;20214;-75
2022/01/27 07:42:17;;;;;;;46.40;28.63;;;;;;;;;;5076197;28;20254;-77
2022/01/27 07:44:46;;;;;;;46.53;28.17;;;;;;;;;;5075312;28;20218;-75
2022/01/27 07:47:14;;;;;;;43.53;28.13;;;;;;;;;;5069118;28;20611;-75
2022/01/27 07:49:42;;;;;;;43.10;28.20;;;;;;;;;;5056000;28;20203;-75
2022/01/27 07:52:12;;;;;;;47.93;29.50;;;;;;;;;;5056237;28;20208;-75
2022/01/27 07:54:40;;;;;;;43.67;27.33;;;;;;;;;;5056047;28;20210;-74
2022/01/27 07:57:09;;;;;;;49.70;28.93;;;;;;;;;;5055877;28;20240;-76
2022/01/27 07:59:39;;;;;;;44.77;28.43;;;;;;;;;;5055474;28;20266;-74
2022/01/27 08:02:07;;;;;;;47.97;29.37;;;;;;;;;;5056233;28;20204;-77
2022/01/27 08:04:36;;;;;;;45.60;28.60;;;;;;;;;;5055241;28;20772;-77
2022/01/27 08:07:04;;;;;;;48.90;29.33;;;;;;;;;;5069554;28;20249;-75
2022/01/27 08:09:33;;;;;;;45.07;28.40;;;;;;;;;;5074621;28;20673;-74
2022/01/27 08:12:01;;;;;;;43.20;28.00;;;;;;;;;;5065406;28;20196;-78
2022/01/27 08:14:30;;;;;;;46.23;29.70;;;;;;;;;;5057895;28;20213;-76
2022/01/27 08:16:59;;;;;;;47.90;28.70;;;;;;;;;;5055298;28;20629;-75
2022/01/27 08:19:28;;;;;;;46.10;29.03;;;;;;;;;;5056051;28;20202;-76
2022/01/27 08:21:56;;;;;;;44.10;28.33;;;;;;;;;;5055537;28;20733;-79
2022/01/27 08:24:25;;;;;;;48.07;29.07;;;;;;;;;;5055745;28;20210;-75
2022/01/27 08:27:00;;;;;;;50.73;28.90;;;;;;;;;;5055622;28;20254;-75
2022/01/27 08:29:33;;;;;;;44.73;27.07;;;;;;;;;;5060647;28;20220;-76
2022/01/27 08:32:32;;;;;;;45.13;27.40;;;;;;;;;;5061855;28;20201;-75
2022/01/27 08:35:00;;;;;;;44.60;27.60;;;;;;;;;;5062079;28;20254;-76
2022/01/27 08:37:29;;;;;;;44.50;27.73;;;;;;;;;;5073798;28;20228;-75
2022/01/27 08:39:57;;;;;;;41.83;26.33;;;;;;;;;;5074563;28;20193;-75
2022/01/27 08:42:45;;;;;;;41.43;27.00;;;;;;;;;;5075235;28;20195;-76
2022/01/27 08:45:15;;;;;;;45.83;27.77;;;;;;;;;;5054610;28;20204;-80
2022/01/27 08:47:45;;;;;;;42.43;26.73;;;;;;;;;;5055543;28;20742;-78
2022/01/27 08:50:15;;;;;;;44.03;27.07;;;;;;;;;;5055310;28;20208;-75
2022/01/27 08:52:45;;;;;;;42.13;26.93;;;;;;;;;;5055811;28;20199;-77
2022/01/27 08:55:13;;;;;;;41.43;26.77;;;;;;;;;;5064813;28;20198;-74
2022/01/27 08:57:42;;;;;;;43.50;26.07;;;;;;;;;;5066296;28;20223;-77
2022/01/27 09:00:14;;;;;;;39.90;26.43;;;;;;;;;;5055503;28;20266;-77
2022/01/27 09:02:44;;;;;;;41.33;26.57;;;;;;;;;;5055478;28;20229;-79
2022/01/27 09:05:13;;;;;;;46.37;27.43;;;;;;;;;;5063780;28;20724;-79
2022/01/27 09:07:41;;;;;;;39.87;25.47;;;;;;;;;;5075423;28;20214;-76
2022/01/27 09:10:10;;;;;;;39.23;24.83;;;;;;;;;;5075328;28;20203;-78
2022/01/27 09:12:39;;;;;;;38.87;24.57;;;;;;;;;;5075482;28;20213;-79
2022/01/27 09:15:08;;;;;;;37.60;24.43;;;;;;;;;;5059109;28;20670;-78
2022/01/27 09:17:39;;;;;;;37.17;23.77;;;;;;;;;;5055167;28;20626;-77
2022/01/27 09:20:11;;;;;;;34.23;24.10;;;;;;;;;;5054717;28;20194;-76
2022/01/27 09:22:40;;;;;;;34.17;22.83;;;;;;;;;;5054958;28;20211;-77
2022/01/27 09:25:14;;;;;;;33.20;22.33;;;;;;;;;;5054108;28;20674;-77
2022/01/27 09:27:43;;;;;;;33.23;21.13;;;;;;;;;;5072880;28;20215;-79
2022/01/27 09:30:13;;;;;;;32.00;21.10;;;;;;;;;;5071336;28;20205;-79
2022/01/27 09:32:41;;;;;;;33.00;21.07;;;;;;;;;;5054471;28;20207;-78
2022/01/27 09:35:12;;;;;;;29.57;19.40;;;;;;;;;;5068451;28;20208;-78
2022/01/27 09:37:40;;;;;;;29.90;20.10;;;;;;;;;;5058196;28;20218;-78
2022/01/27 09:40:09;;;;;;;27.27;19.00;;;;;;;;;;5056423;28;20673;-76
2022/01/27 09:42:38;;;;;;;30.43;19.07;;;;;;;;;;5068260;28;20202;-79
2022/01/27 09:45:09;;;;;;;29.80;19.90;;;;;;;;;;5055203;28;20222;-77
2022/01/27 09:47:41;;;;;;;25.40;18.27;;;;;;;;;;5060530;28;20729;-77
2022/01/27 09:50:25;;;;;;;23.77;17.43;;;;;;;;;;5067158;28;20256;-78
2022/01/27 09:52:54;;;;;;;26.67;17.40;;;;;;;;;;5074448;28;20206;-80
2022/01/27 09:55:22;;;;;;;24.03;17.57;;;;;;;;;;5064157;28;20611;-77
2022/01/27 09:57:54;;;;;;;24.27;17.33;;;;;;;;;;5073858;28;20233;-80
2022/01/27 10:00:23;;;;;;;25.73;16.03;;;;;;;;;;5060064;28;20249;-78
2022/01/27 10:03:08;;;;;;;20.93;15.73;;;;;;;;;;5054061;28;20207;-77
2022/01/27 10:05:38;;;;;;;20.43;14.23;;;;;;;;;;5068514;28;20683;-78
2022/01/27 10:08:09;;;;;;;17.27;13.33;;;;;;;;;;5062072;28;20215;-78
2022/01/27 10:10:39;;;;;;;18.50;14.00;;;;;;;;;;5068792;28;20202;-79
2022/01/27 10:13:10;;;;;;;19.07;13.30;;;;;;;;;;5071716;28;20202;-80
2022/01/27 10:15:46;;;;;;;18.17;12.97;;;;;;;;;;5054036;28;20651;-77
2022/01/27 10:18:15;;;;;;;17.90;12.47;;;;;;;;;;5065210;28;20218;-76
2022/01/27 10:20:46;;;;;;;15.83;12.80;;;;;;;;;;5073406;28;20209;-78
2022/01/27 10:23:16;;;;;;;15.73;12.43;;;;;;;;;;5072892;28;20287;-80
2022/01/27 10:25:51;;;;;;;17.13;12.50;;;;;;;;;;5060323;28;20249;-78
2022/01/27 10:28:35;;;;;;;16.27;12.73;;;;;;;;;;5059556;28;20218;-79
2022/01/27 10:31:05;;;;;;;14.80;11.73;;;;;;;;;;5053396;28;20256;-76
2022/01/27 10:33:46;;;;;;;14.70;12.40;;;;;;;;;;5053062;28;20207;-76
2022/01/27 10:36:18;;;;;;;14.90;11.50;;;;;;;;;;5069676;28;20199;-75
2022/01/27 10:38:47;;;;;;;14.67;11.97;;;;;;;;;;5073365;28;20222;-79
2022/01/27 10:41:17;;;;;;;18.63;13.53;;;;;;;;;;5056947;28;20696;-78
2022/01/27 10:43:46;;;;;;;16.50;12.73;;;;;;;;;;5059364;28;20253;-77
2022/01/27 10:46:21;;;;;;;15.23;12.03;;;;;;;;;;5073398;28;20301;-77
2022/01/27 10:48:55;;;;;;;14.67;12.13;;;;;;;;;;5065701;28;20222;-78
2022/01/27 10:51:27;;;;;;;15.60;12.03;;;;;;;;;;5053499;28;20203;-77
2022/01/27 10:54:04;;;;;;;16.10;11.83;;;;;;;;;;5053178;28;20195;-75
2022/01/27 10:56:33;;;;;;;14.80;11.63;;;;;;;;;;5072802;28;20202;-78
2022/01/27 10:59:03;;;;;;;14.70;11.40;;;;;;;;;;5072888;28;20272;-76
2022/01/27 11:01:33;;;;;;;15.77;12.50;;;;;;;;;;5072674;28;20206;-77
2022/01/27 11:04:03;;;;;;;15.73;11.87;;;;;;;;;;5059568;28;20202;-75
2022/01/27 11:06:34;;;;;;;16.37;12.63;;;;;;;;;;5072917;28;20248;-76
2022/01/27 11:09:07;;;;;;;16.63;12.47;;;;;;;;;;5072605;28;20214;-76
2022/01/27 11:11:38;;;;;;;15.57;13.23;;;;;;;;;;5063567;28;20192;-76
2022/01/27 11:14:07;;;;;;;15.77;12.47;;;;;;;;;;5063152;28;20221;-78
2022/01/27 11:16:38;;;;;;;16.80;12.80;;;;;;;;;;5072915;28;20199;-74
2022/01/27 11:19:36;;;;;;;17.23;13.07;;;;;;;;;;5066855;28;20238;-78
2022/01/27 11:22:07;;;;;;;16.70;12.83;;;;;;;;;;5064868;28;20256;-78
2022/01/27 11:24:55;;;;;;;15.80;12.60;;;;;;;;;;5062987;28;20203;-75
2022/01/27 11:27:24;;;;;;;14.43;12.07;;;;;;;;;;5052872;28;20230;-76
2022/01/27 11:29:57;;;;;;;14.83;12.07;;;;;;;;;;5053534;28;20244;-77
2022/01/27 11:32:29;;;;;;;15.03;11.57;;;;;;;;;;5058777;28;20635;-78
2022/01/27 11:34:58;;;;;;;13.07;10.93;;;;;;;;;;5053947;28;20245;-76
2022/01/27 11:37:34;;;;;;;14.73;11.10;;;;;;;;;;5071297;28;20702;-77
2022/01/27 11:40:04;;;;;;;14.67;11.47;;;;;;;;;;5072171;28;20668;-78
2022/01/27 11:43:06;;;;;;;14.33;11.50;;;;;;;;;;5072227;28;20205;-76
2022/01/27 11:45:36;;;;;;;13.83;11.27;;;;;;;;;;5066103;28;20198;-78
2022/01/27 11:48:11;;;;;;;15.97;12.80;;;;;;;;;;5054553;28;20592;-79
2022/01/27 11:50:49;;;;;;;15.63;12.23;;;;;;;;;;5056485;28;20582;-75
2022/01/27 11:53:33;;;;;;;15.47;12.33;;;;;;;;;;5056064;28;20596;-78
2022/01/27 11:56:02;;;;;;;16.97;12.33;;;;;;;;;;5065037;28;20183;-77
2022/01/27 11:58:31;;;;;;;15.43;12.50;;;;;;;;;;5075840;28;20225;-76
2022/01/27 12:01:11;;;;;;;16.83;12.87;;;;;;;;;;5067955;28;20195;-77
2022/01/27 12:03:40;;;;;;;15.50;12.63;;;;;;;;;;5055635;28;20655;-78
2022/01/27 12:06:13;;;;;;;17.40;12.93;;;;;;;;;;5056007;28;20550;-75
2022/01/27 12:08:43;;;;;;;15.43;11.97;;;;;;;;;;5055634;28;20219;-75
2022/01/27 12:11:40;;;;;;;15.77;12.33;;;;;;;;;;5064133;28;20730;-78
2022/01/27 12:14:08;;;;;;;17.63;12.23;;;;;;;;;;5060468;28;20237;-77
2022/01/27 12:16:56;;;;;;;18.97;13.93;;;;;;;;;;5055609;28;20658;-78
2022/01/27 12:19:24;;;;;;;19.37;13.47;;;;;;;;;;5063418;28;20682;-78
2022/01/27 12:21:59;;;;;;;17.57;12.57;;;;;;;;;;5066847;28;20253;-74
2022/01/27 12:24:30;;;;;;;17.83;12.80;;;;;;;;;;5055544;28;20272;-74
2022/01/27 12:26:59;;;;;;;16.37;12.57;;;;;;;;;;5058009;28;20195;-75
2022/01/27 12:29:32;;;;;;;14.23;12.70;;;;;;;;;;5056586;28;20199;-74
2022/01/27 12:32:02;;;;;;;15.83;12.33;;;;;;;;;;5058828;28;20203;-75
2022/01/27 12:34:30;;;;;;;16.50;13.00;;;;;;;;;;5055134;28;20210;-75
2022/01/27 12:37:03;;;;;;;16.30;12.20;;;;;;;;;;5055049;28;20732;-78
2022/01/27 12:39:34;;;;;;;17.70;13.23;;;;;;;;;;5054994;28;20763;-78
2022/01/27 12:42:03;;;;;;;16.27;12.90;;;;;;;;;;5055193;28;20238;-78
2022/01/27 12:44:32;;;;;;;20.07;13.90;;;;;;;;;;5068758;28;20213;-76
2022/01/27 12:47:04;;;;;;;16.57;12.70;;;;;;;;;;5074625;28;20202;-75
2022/01/27 12:49:38;;;;;;;16.50;12.47;;;;;;;;;;5063301;28;20198;-77
2022/01/27 12:52:08;;;;;;;17.37;13.00;;;;;;;;;;5064416;28;20600;-75
2022/01/27 12:54:39;;;;;;;15.73;12.43;;;;;;;;;;5054750;28;20642;-74
2022/01/27 12:57:09;;;;;;;17.73;12.93;;;;;;;;;;5054906;28;20265;-75
2022/01/27 12:59:39;;;;;;;19.93;13.53;;;;;;;;;;5065654;28;20219;-76
2022/01/27 13:02:08;;;;;;;18.57;12.53;;;;;;;;;;5063965;28;20199;-78
2022/01/27 13:04:37;;;;;;;21.67;13.07;;;;;;;;;;5074816;28;20198;-76
2022/01/27 13:07:07;;;;;;;17.37;12.23;;;;;;;;;;5074555;28;20228;-75
2022/01/27 13:09:35;;;;;;;15.43;12.57;;;;;;;;;;5074561;28;20207;-76
2022/01/27 13:12:21;;;;;;;17.83;12.90;;;;;;;;;;5058923;28;20199;-77
2022/01/27 13:15:09;;;;;;;17.03;12.23;;;;;;;;;;5058306;28;20684;-76
2022/01/27 13:17:44;;;;;;;15.07;11.33;;;;;;;;;;5069981;28;20222;-76
2022/01/27 13:20:22;;;;;;;13.97;10.53;;;;;;;;;;5054446;28;20219;-74
2022/01/27 13:22:53;;;;;;;12.07;10.47;;;;;;;;;;5064439;28;20210;-73
2022/01/27 13:25:23;;;;;;;12.10;9.97;;;;;;;;;;5069165;28;20728;-73
2022/01/27 13:28:04;;;;;;;11.27;9.47;;;;;;;;;;5069609;28;20694;-74
2022/01/27 13:30:35;;;;;;;10.40;8.97;;;;;;;;;;5054040;28;20199;-74
2022/01/27 13:33:06;;;;;;;11.37;8.37;;;;;;;;;;5058268;28;20214;-74
2022/01/27 13:35:35;;;;;;;10.50;9.17;;;;;;;;;;5053500;28;20257;-74
2022/01/27 13:38:17;;;;;;;11.17;8.37;;;;;;;;;;5059890;28;20214;-77
2022/01/27 13:43:36;;;;;;;8.97;7.40;;;;;;;;;;5053790;28;20203;-75
2022/01/27 13:46:05;;;;;;;8.63;7.37;;;;;;;;;;5058798;28;20239;-76
2022/01/27 13:48:42;;;;;;;10.30;7.90;;;;;;;;;;5069107;28;20288;-73
2022/01/27 13:51:18;;;;;;;8.70;7.40;;;;;;;;;;5065931;28;20233;-76
2022/01/27 13:53:59;;;;;;;9.47;8.27;;;;;;;;;;5063495;28;20195;-74
2022/01/27 13:56:38;;;;;;;10.80;8.47;;;;;;;;;;5057868;28;20646;-74
2022/01/27 13:59:11;;;;;;;9.73;8.03;;;;;;;;;;5062843;28;20256;-74
2022/01/27 14:01:41;;;;;;;9.67;8.30;;;;;;;;;;5057917;28;20628;-77
2022/01/27 14:04:11;;;;;;;11.90;8.40;;;;;;;;;;5065578;28;20194;-74
2022/01/27 14:06:52;;;;;;;9.40;8.40;;;;;;;;;;5053922;28;20628;-77
2022/01/27 14:09:22;;;;;;;11.13;9.00;;;;;;;;;;5053387;28;20290;-76
2022/01/27 14:11:56;;;;;;;11.33;8.47;;;;;;;;;;5063122;28;20197;-77
2022/01/27 14:14:39;;;;;;;10.17;8.23;;;;;;;;;;5068105;28;20281;-73
2022/01/27 14:17:20;;;;;;;12.93;8.73;;;;;;;;;;5053332;28;20687;-76
2022/01/27 14:19:48;;;;;;;8.70;7.53;;;;;;;;;;5057232;28;20191;-75
2022/01/27 14:22:21;;;;;;;12.67;8.80;;;;;;;;;;5068165;28;20218;-74
2022/01/27 14:25:20;;;;;;;10.00;7.87;;;;;;;;;;5072529;28;20669;-75
2022/01/27 14:27:49;;;;;;;11.90;8.30;;;;;;;;;;5058950;28;20250;-75
2022/01/27 14:30:18;;;;;;;13.20;8.40;;;;;;;;;;5054933;28;20249;-74
2022/01/27 14:32:48;;;;;;;13.80;8.17;;;;;;;;;;5060576;28;20195;-75
2022/01/27 14:35:17;;;;;;;10.07;8.40;;;;;;;;;;5068163;28;20203;-77
2022/01/27 14:37:46;;;;;;;11.27;7.90;;;;;;;;;;5065344;28;20231;-73
2022/01/27 14:40:16;;;;;;;13.30;8.37;;;;;;;;;;5050494;28;20222;-75
2022/01/27 14:42:46;;;;;;;12.10;8.40;;;;;;;;;;5051112;28;20222;-76
2022/01/27 14:45:17;;;;;;;13.43;9.00;;;;;;;;;;5054397;28;20211;-73
2022/01/27 14:48:02;;;;;;;10.93;8.40;;;;;;;;;;5060583;28;20218;-74
2022/01/27 14:50:32;;;;;;;12.53;8.53;;;;;;;;;;5054336;28;20209;-73
2022/01/27 14:53:00;;;;;;;14.00;8.77;;;;;;;;;;5056270;28;20199;-77
2022/01/27 14:55:29;;;;;;;13.83;8.43;;;;;;;;;;5062187;28;20198;-77
2022/01/27 14:57:58;;;;;;;12.17;8.10;;;;;;;;;;5054890;28;20230;-75
2022/01/27 15:00:26;;;;;;;13.07;8.43;;;;;;;;;;5054091;28;20223;-75
2022/01/27 15:02:55;;;;;;;14.83;9.20;;;;;;;;;;5051923;28;20210;-75
2022/01/27 15:05:25;;;;;;;15.33;8.40;;;;;;;;;;5058000;28;20214;-75
2022/01/27 15:07:53;;;;;;;13.07;7.47;;;;;;;;;;5053789;28;20222;-74